createdAt,value
2019-03-18T00:00:23.356Z,18.75
2019-03-18T00:02:51.800Z,18.75
2019-03-18T00:05:20.229Z,18.75
2019-03-18T00:07:48.648Z,18.73
2019-03-18T00:10:17.094Z,18.72
2019-03-18T00:12:45.489Z,18.70
2019-03-18T00:15:13.920Z,18.71
2019-03-18T00:17:42.332Z,18.70
2019-03-18T00:20:11.307Z,18.69
2019-03-18T00:22:39.742Z,18.69
2019-03-18T00:25:11.229Z,18.67
2019-03-18T00:27:39.628Z,18.68
2019-03-18T00:30:11.106Z,18.67
2019-03-18T00:32:39.523Z,18.67
2019-03-18T00:35:08.097Z,18.68
2019-03-18T00:37:36.526Z,18.68
2019-03-18T00:40:08.371Z,18.68
2019-03-18T00:42:36.854Z,18.67
2019-03-18T00:45:14.596Z,18.66
2019-03-18T00:47:37.387Z,18.65
2019-03-18T00:50:14.299Z,18.65
2019-03-18T00:52:42.808Z,18.66
2019-03-18T00:55:11.355Z,18.63
2019-03-18T00:57:39.853Z,18.63
2019-03-18T01:00:13.238Z,18.63
2019-03-18T01:02:41.706Z,18.64
2019-03-18T01:05:10.463Z,18.63
2019-03-18T01:07:38.952Z,18.62
2019-03-18T01:10:10.480Z,18.62
2019-03-18T01:12:38.896Z,18.64
2019-03-18T01:15:09.268Z,18.63
2019-03-18T01:17:37.754Z,18.62
2019-03-18T01:20:08.125Z,18.61
2019-03-18T01:22:36.596Z,18.62
2019-03-18T01:25:06.782Z,18.61
2019-03-18T01:27:35.224Z,18.60
2019-03-18T01:30:04.944Z,18.61
2019-03-18T01:32:33.428Z,18.60
2019-03-18T01:35:01.831Z,18.61
2019-03-18T01:37:30.278Z,18.61
2019-03-18T01:39:58.679Z,18.61
2019-03-18T01:42:27.117Z,18.61
2019-03-18T01:44:55.534Z,18.60
2019-03-18T01:47:23.995Z,18.60
2019-03-18T01:49:52.410Z,18.60
2019-03-18T01:52:20.818Z,18.60
2019-03-18T01:54:49.244Z,18.59
2019-03-18T01:57:17.648Z,18.60
2019-03-18T01:59:46.096Z,18.60
2019-03-18T02:02:14.534Z,18.59
2019-03-18T02:04:42.970Z,18.58
2019-03-18T02:07:11.360Z,18.59
2019-03-18T02:09:39.828Z,18.58
2019-03-18T02:12:08.230Z,18.59
2019-03-18T02:14:36.668Z,18.58
2019-03-18T02:17:05.066Z,18.57
2019-03-18T02:19:33.516Z,18.57
2019-03-18T02:22:01.932Z,18.57
2019-03-18T02:24:30.335Z,18.57
2019-03-18T02:26:58.781Z,18.56
2019-03-18T02:29:27.184Z,18.55
2019-03-18T02:31:55.636Z,18.54
2019-03-18T02:34:24.243Z,18.56
2019-03-18T02:36:52.665Z,18.54
2019-03-18T02:39:21.076Z,18.54
2019-03-18T02:41:49.508Z,18.52
2019-03-18T02:44:18.029Z,18.53
2019-03-18T02:46:46.434Z,18.52
2019-03-18T02:49:14.864Z,18.52
2019-03-18T02:51:43.293Z,18.51
2019-03-18T02:54:11.741Z,18.49
2019-03-18T02:56:40.198Z,18.50
2019-03-18T02:59:08.631Z,18.49
2019-03-18T03:01:37.083Z,18.50
2019-03-18T03:04:05.502Z,18.48
2019-03-18T03:06:33.929Z,18.49
2019-03-18T03:09:02.418Z,18.48
2019-03-18T03:11:34.074Z,18.47
2019-03-18T03:14:01.027Z,18.46
2019-03-18T03:16:29.433Z,18.45
2019-03-18T03:18:57.871Z,18.46
2019-03-18T03:21:26.264Z,18.46
2019-03-18T03:23:54.679Z,18.46
2019-03-18T03:26:23.130Z,18.46
2019-03-18T03:28:51.569Z,18.47
2019-03-18T03:31:19.995Z,18.48
2019-03-18T03:33:48.444Z,18.47
2019-03-18T03:36:16.847Z,18.48
2019-03-18T03:38:45.269Z,18.47
2019-03-18T03:41:17.748Z,18.49
2019-03-18T03:43:43.903Z,18.49
2019-03-18T03:46:12.290Z,18.49
2019-03-18T03:48:40.751Z,18.49
2019-03-18T03:51:09.166Z,18.48
2019-03-18T03:53:37.557Z,18.49
2019-03-18T03:56:05.995Z,18.50
2019-03-18T03:58:34.580Z,18.50
2019-03-18T04:01:02.980Z,18.51
2019-03-18T04:03:38.216Z,18.48
2019-03-18T04:06:01.580Z,18.49
2019-03-18T04:08:30.069Z,18.48
2019-03-18T04:10:58.550Z,18.48
2019-03-18T04:13:26.981Z,18.47
2019-03-18T04:15:55.395Z,18.50
2019-03-18T04:18:23.836Z,18.47
2019-03-18T04:20:52.361Z,18.48
2019-03-18T04:23:20.804Z,18.48
2019-03-18T04:25:49.313Z,18.49
2019-03-18T04:28:17.747Z,18.49
2019-03-18T04:30:46.143Z,18.49
2019-03-18T04:33:14.570Z,18.50
2019-03-18T04:35:42.983Z,18.49
2019-03-18T04:38:11.420Z,18.49
2019-03-18T04:40:39.859Z,18.50
2019-03-18T04:43:08.309Z,18.50
2019-03-18T04:45:36.723Z,18.50
2019-03-18T04:48:05.137Z,18.50
2019-03-18T04:50:33.570Z,18.52
2019-03-18T04:53:01.991Z,18.51
2019-03-18T04:55:30.431Z,18.51
2019-03-18T04:57:58.852Z,18.50
2019-03-18T05:00:27.301Z,18.51
2019-03-18T05:02:55.719Z,18.51
2019-03-18T05:05:24.190Z,18.51
2019-03-18T05:07:52.625Z,18.51
2019-03-18T05:10:21.033Z,18.51
2019-03-18T05:12:49.445Z,18.52
2019-03-18T05:15:17.889Z,18.53
2019-03-18T05:17:46.314Z,18.52
2019-03-18T05:20:14.727Z,18.53
2019-03-18T05:22:43.163Z,18.54
2019-03-18T05:25:11.574Z,18.53
2019-03-18T05:27:40.011Z,18.54
2019-03-18T05:30:13.226Z,18.55
2019-03-18T05:32:41.650Z,18.56
2019-03-18T05:35:10.273Z,18.56
2019-03-18T05:37:38.681Z,18.57
2019-03-18T05:40:08.253Z,18.56
2019-03-18T05:42:36.649Z,18.56
2019-03-18T05:45:07.805Z,18.56
2019-03-18T05:47:39.687Z,18.58
2019-03-18T05:50:08.603Z,18.57
2019-03-18T05:52:37.025Z,18.56
2019-03-18T05:55:06.583Z,18.57
2019-03-18T05:57:35.028Z,18.58
2019-03-18T06:00:05.101Z,18.58
2019-03-18T06:02:33.525Z,18.58
2019-03-18T06:05:01.970Z,18.59
2019-03-18T06:07:30.410Z,18.60
2019-03-18T06:09:58.863Z,18.60
2019-03-18T06:12:27.283Z,18.61
2019-03-18T06:14:55.689Z,18.61
2019-03-18T06:17:24.216Z,18.62
2019-03-18T06:19:52.658Z,18.63
2019-03-18T06:22:21.112Z,18.62
2019-03-18T06:24:49.563Z,18.65
2019-03-18T06:27:17.973Z,18.65
2019-03-18T06:29:46.414Z,18.65
2019-03-18T06:32:14.864Z,18.65
2019-03-18T06:34:43.272Z,18.68
2019-03-18T06:37:11.704Z,18.71
2019-03-18T06:39:40.112Z,18.78
2019-03-18T06:42:08.568Z,18.84
2019-03-18T06:44:36.980Z,18.89
2019-03-18T06:47:05.389Z,18.96
2019-03-18T06:49:33.839Z,19.02
2019-03-18T06:52:02.282Z,19.09
2019-03-18T06:54:30.704Z,19.14
2019-03-18T06:56:59.132Z,19.20
2019-03-18T06:59:27.578Z,19.26
2019-03-18T07:01:55.988Z,19.33
2019-03-18T07:04:24.522Z,19.40
2019-03-18T07:06:52.942Z,19.47
2019-03-18T07:09:21.346Z,19.52
2019-03-18T07:11:49.786Z,19.58
2019-03-18T07:14:18.193Z,19.63
2019-03-18T07:16:46.625Z,19.71
2019-03-18T07:19:15.049Z,19.76
2019-03-18T07:21:43.493Z,19.81
2019-03-18T07:24:11.893Z,19.85
2019-03-18T07:26:40.320Z,19.92
2019-03-18T07:29:08.751Z,19.99
2019-03-18T07:31:37.200Z,20.06
2019-03-18T07:34:05.682Z,20.13
2019-03-18T07:36:34.093Z,20.19
2019-03-18T07:39:02.546Z,20.24
2019-03-18T07:41:30.952Z,20.35
2019-03-18T07:43:59.454Z,20.43
2019-03-18T07:46:27.868Z,20.51
2019-03-18T07:48:56.292Z,20.58
2019-03-18T07:51:24.696Z,20.66
2019-03-18T07:53:53.127Z,20.69
2019-03-18T07:56:21.601Z,20.70
2019-03-18T07:58:50.076Z,20.70
2019-03-18T08:01:18.523Z,20.69
2019-03-18T08:03:46.944Z,20.67
2019-03-18T08:06:15.362Z,20.64
2019-03-18T08:08:43.809Z,20.61
2019-03-18T08:11:12.230Z,20.59
2019-03-18T08:13:40.682Z,20.58
2019-03-18T08:16:09.084Z,20.59
2019-03-18T08:18:43.213Z,20.60
2019-03-18T08:21:07.667Z,20.61
2019-03-18T08:23:36.088Z,20.63
2019-03-18T08:26:04.539Z,20.65
2019-03-18T08:28:32.953Z,20.65
2019-03-18T08:31:01.392Z,20.72
2019-03-18T08:33:29.810Z,20.78
2019-03-18T08:35:58.234Z,20.83
2019-03-18T08:38:26.664Z,20.90
2019-03-18T08:40:55.283Z,20.95
2019-03-18T08:43:23.760Z,20.99
2019-03-18T08:45:52.255Z,21.02
2019-03-18T08:48:20.676Z,21.04
2019-03-18T08:50:49.086Z,21.06
2019-03-18T08:53:17.522Z,21.08
2019-03-18T08:55:46.000Z,21.09
2019-03-18T08:58:14.427Z,21.12
2019-03-18T09:00:42.863Z,21.19
2019-03-18T09:03:11.298Z,21.30
2019-03-18T09:05:39.806Z,21.33
2019-03-18T09:08:08.254Z,21.33
2019-03-18T09:10:36.666Z,21.31
2019-03-18T09:13:05.147Z,21.26
2019-03-18T09:15:33.577Z,21.26
2019-03-18T09:18:01.988Z,21.26
2019-03-18T09:20:30.422Z,21.31
2019-03-18T09:23:01.370Z,21.34
2019-03-18T09:25:29.003Z,21.34
2019-03-18T09:27:57.438Z,21.37
2019-03-18T09:30:25.921Z,21.40
2019-03-18T09:32:54.342Z,21.42
2019-03-18T09:35:22.774Z,21.42
2019-03-18T09:37:51.201Z,21.40
2019-03-18T09:40:19.713Z,21.37
2019-03-18T09:42:48.130Z,21.34
2019-03-18T09:45:17.699Z,21.32
2019-03-18T09:47:46.173Z,21.31
2019-03-18T09:50:15.204Z,21.30
2019-03-18T09:52:43.664Z,21.27
2019-03-18T09:55:12.159Z,21.25
2019-03-18T09:57:40.563Z,21.20
2019-03-18T10:00:14.124Z,21.14
2019-03-18T10:02:42.545Z,21.11
2019-03-18T10:05:11.112Z,21.08
2019-03-18T10:07:39.582Z,21.04
2019-03-18T10:10:10.105Z,20.98
2019-03-18T10:12:38.558Z,20.94
2019-03-18T10:15:12.771Z,20.91
2019-03-18T10:17:41.219Z,20.88
2019-03-18T10:20:10.204Z,20.85
2019-03-18T10:22:38.642Z,20.82
2019-03-18T10:25:08.218Z,20.75
2019-03-18T10:27:37.836Z,20.72
2019-03-18T10:30:15.110Z,20.68
2019-03-18T10:32:43.782Z,20.65
2019-03-18T10:35:12.452Z,20.60
2019-03-18T10:37:40.877Z,20.57
2019-03-18T10:40:13.395Z,20.55
2019-03-18T10:42:41.993Z,20.55
2019-03-18T10:45:14.262Z,20.55
2019-03-18T10:47:42.697Z,20.58
2019-03-18T10:50:18.228Z,20.59
2019-03-18T10:52:46.669Z,20.59
2019-03-18T10:55:15.182Z,20.60
2019-03-18T10:57:43.599Z,20.61
2019-03-18T11:00:16.405Z,20.69
2019-03-18T11:02:45.552Z,20.85
2019-03-18T11:05:14.828Z,21.09
2019-03-18T11:07:43.410Z,21.30
2019-03-18T11:10:13.595Z,21.52
2019-03-18T11:12:42.026Z,21.71
2019-03-18T11:15:17.219Z,21.77
2019-03-18T11:17:45.674Z,21.80
2019-03-18T11:20:15.521Z,21.91
2019-03-18T11:22:44.353Z,21.93
2019-03-18T11:25:14.970Z,21.87
2019-03-18T11:27:43.396Z,21.73
2019-03-18T11:30:16.561Z,21.73
2019-03-18T11:32:44.965Z,21.93
2019-03-18T11:35:13.519Z,22.13
2019-03-18T11:37:42.327Z,22.37
2019-03-18T11:40:13.779Z,22.61
2019-03-18T11:42:42.193Z,22.76
2019-03-18T11:45:12.859Z,22.91
2019-03-18T11:47:41.282Z,23.08
2019-03-18T11:50:12.737Z,23.12
2019-03-18T11:52:41.292Z,23.11
2019-03-18T11:55:17.415Z,23.21
2019-03-18T11:57:45.883Z,23.30
2019-03-18T12:00:22.270Z,23.26
2019-03-18T12:02:50.718Z,23.20
2019-03-18T12:05:28.951Z,23.07
2019-03-18T12:07:57.396Z,22.91
2019-03-18T12:10:26.261Z,22.80
2019-03-18T12:12:54.914Z,22.73
2019-03-18T12:15:27.353Z,22.60
2019-03-18T12:20:25.265Z,22.38
2019-03-18T12:22:53.448Z,22.28
2019-03-18T12:25:21.840Z,22.31
2019-03-18T12:27:50.359Z,22.38
2019-03-18T12:30:23.329Z,22.42
2019-03-18T12:32:51.862Z,22.58
2019-03-18T12:35:20.517Z,22.81
2019-03-18T12:37:49.172Z,22.96
2019-03-18T12:40:18.277Z,23.10
2019-03-18T12:42:46.752Z,23.27
2019-03-18T12:45:16.429Z,23.39
2019-03-18T12:47:44.882Z,23.49
2019-03-18T12:50:16.328Z,23.51
2019-03-18T12:52:44.829Z,23.35
2019-03-18T12:55:13.404Z,23.06
2019-03-18T12:57:41.882Z,22.81
2019-03-18T13:00:21.428Z,22.83
2019-03-18T13:02:50.080Z,22.92
2019-03-18T13:05:18.894Z,23.12
2019-03-18T13:07:47.497Z,23.25
2019-03-18T13:10:21.421Z,23.41
2019-03-18T13:12:50.429Z,23.49
2019-03-18T13:15:20.118Z,23.51
2019-03-18T13:17:48.543Z,23.53
2019-03-18T13:20:18.077Z,23.52
2019-03-18T13:22:46.517Z,23.48
2019-03-18T13:25:15.067Z,23.45
2019-03-18T13:27:43.511Z,23.18
2019-03-18T13:30:19.896Z,23.16
2019-03-18T13:32:48.326Z,23.18
2019-03-18T13:35:17.095Z,23.08
2019-03-18T13:37:45.617Z,23.02
2019-03-18T13:40:17.893Z,22.94
2019-03-18T13:42:46.478Z,22.85
2019-03-18T13:45:21.834Z,22.73
2019-03-18T13:47:50.257Z,22.67
2019-03-18T13:50:23.200Z,22.64
2019-03-18T13:52:51.643Z,22.59
2019-03-18T13:55:20.271Z,22.52
2019-03-18T13:57:48.716Z,22.44
2019-03-18T14:00:19.260Z,22.40
2019-03-18T14:02:47.864Z,22.32
2019-03-18T14:05:16.345Z,22.26
2019-03-18T14:07:44.963Z,22.17
2019-03-18T14:10:18.116Z,22.09
2019-03-18T14:12:46.521Z,22.06
2019-03-18T14:15:25.443Z,21.95
2019-03-18T14:17:53.929Z,21.88
2019-03-18T14:20:23.893Z,21.80
2019-03-18T14:22:52.347Z,21.73
2019-03-18T14:25:20.753Z,21.66
2019-03-18T14:27:49.271Z,21.62
2019-03-18T14:30:22.388Z,21.60
2019-03-18T14:32:50.816Z,21.59
2019-03-18T14:35:21.255Z,21.59
2019-03-18T14:37:49.395Z,21.61
2019-03-18T14:40:22.068Z,21.57
2019-03-18T14:42:50.583Z,21.53
2019-03-18T14:45:20.355Z,21.50
2019-03-18T14:47:48.775Z,21.47
2019-03-18T14:50:18.032Z,21.43
2019-03-18T14:52:46.739Z,21.40
2019-03-18T14:55:18.537Z,21.36
2019-03-18T14:57:46.980Z,21.33
2019-03-18T15:00:17.727Z,21.30
2019-03-18T15:02:46.161Z,21.28
2019-03-18T15:05:15.707Z,21.25
2019-03-18T15:07:44.125Z,21.24
2019-03-18T15:10:20.843Z,21.21
2019-03-18T15:12:49.244Z,21.18
2019-03-18T15:15:19.551Z,21.13
2019-03-18T15:17:48.109Z,21.10
2019-03-18T15:20:18.246Z,21.07
2019-03-18T15:22:46.706Z,21.04
2019-03-18T15:25:23.918Z,21.01
2019-03-18T15:27:52.368Z,20.99
2019-03-18T15:30:21.327Z,20.96
2019-03-18T15:32:49.777Z,20.93
2019-03-18T15:35:18.579Z,20.91
2019-03-18T15:37:47.157Z,20.88
2019-03-18T15:40:20.682Z,20.85
2019-03-18T15:42:49.120Z,20.82
2019-03-18T15:45:21.287Z,20.80
2019-03-18T15:47:49.858Z,20.78
2019-03-18T15:50:20.394Z,20.75
2019-03-18T15:52:48.831Z,20.73
2019-03-18T15:55:17.253Z,20.70
2019-03-18T15:57:45.688Z,20.67
2019-03-18T16:00:28.913Z,20.65
2019-03-18T16:02:57.409Z,20.64
2019-03-18T16:05:25.850Z,20.62
2019-03-18T16:07:54.338Z,20.60
2019-03-18T16:10:22.903Z,20.58
2019-03-18T16:12:51.369Z,20.54
2019-03-18T16:15:19.896Z,20.52
2019-03-18T16:17:48.330Z,20.52
2019-03-18T16:20:22.152Z,20.52
2019-03-18T16:22:50.598Z,20.52
2019-03-18T16:25:19.086Z,20.51
2019-03-18T16:27:47.520Z,20.49
2019-03-18T16:30:22.618Z,20.48
2019-03-18T16:32:51.267Z,20.48
2019-03-18T16:35:19.701Z,20.45
2019-03-18T16:37:49.002Z,20.43
2019-03-18T16:40:21.516Z,20.41
2019-03-18T16:42:49.945Z,20.38
2019-03-18T16:45:19.528Z,20.36
2019-03-18T16:47:47.998Z,20.33
2019-03-18T16:50:30.483Z,20.31
2019-03-18T16:52:59.032Z,20.29
2019-03-18T16:55:27.481Z,20.26
2019-03-18T16:57:55.924Z,20.24
2019-03-18T17:00:25.686Z,20.22
2019-03-18T17:02:54.100Z,20.20
2019-03-18T17:05:22.560Z,20.19
2019-03-18T17:07:53.952Z,20.15
2019-03-18T17:10:21.155Z,20.13
2019-03-18T17:12:49.584Z,20.12
2019-03-18T17:15:22.604Z,20.09
2019-03-18T17:17:51.045Z,20.08
2019-03-18T17:20:19.462Z,20.07
2019-03-18T17:22:49.807Z,20.05
2019-03-18T17:25:23.029Z,20.04
2019-03-18T17:27:51.458Z,20.02
2019-03-18T17:30:20.631Z,20.01
2019-03-18T17:32:49.314Z,20.00
2019-03-18T17:35:18.637Z,19.98
2019-03-18T17:37:47.066Z,19.96
2019-03-18T17:40:16.603Z,19.95
2019-03-18T17:42:45.027Z,19.93
2019-03-18T17:45:18.587Z,19.91
2019-03-18T17:47:47.006Z,19.91
2019-03-18T17:50:17.944Z,19.91
2019-03-18T17:52:46.402Z,19.90
2019-03-18T17:55:14.818Z,19.89
2019-03-18T17:57:43.264Z,19.87
2019-03-18T18:00:16.015Z,19.86
2019-03-18T18:02:44.510Z,19.85
2019-03-18T18:05:13.009Z,19.84
2019-03-18T18:07:41.457Z,19.83
2019-03-18T18:10:11.291Z,19.82
2019-03-18T18:12:39.724Z,19.80
2019-03-18T18:15:10.117Z,19.79
2019-03-18T18:17:38.599Z,19.77
2019-03-18T18:20:12.185Z,19.76
2019-03-18T18:22:41.135Z,19.74
2019-03-18T18:25:11.161Z,19.73
2019-03-18T18:27:39.544Z,19.72
2019-03-18T18:30:14.380Z,19.71
2019-03-18T18:32:42.866Z,19.68
2019-03-18T18:35:12.116Z,19.69
2019-03-18T18:37:40.540Z,19.67
2019-03-18T18:40:14.560Z,19.66
2019-03-18T18:42:42.991Z,19.65
2019-03-18T18:45:12.724Z,19.63
2019-03-18T18:47:41.236Z,19.63
2019-03-18T18:50:11.910Z,19.62
2019-03-18T18:52:40.346Z,19.59
2019-03-18T18:55:12.694Z,19.60
2019-03-18T18:57:41.096Z,19.59
2019-03-18T19:00:21.360Z,19.58
2019-03-18T19:02:49.862Z,19.58
2019-03-18T19:05:19.034Z,19.56
2019-03-18T19:07:47.473Z,19.56
2019-03-18T19:10:20.980Z,19.56
2019-03-18T19:12:49.750Z,19.56
2019-03-18T19:15:25.924Z,19.56
2019-03-18T19:17:54.362Z,19.55
2019-03-18T19:20:22.778Z,19.55
2019-03-18T19:22:51.214Z,19.53
2019-03-18T19:25:19.902Z,19.53
2019-03-18T19:27:48.341Z,19.53
2019-03-18T19:30:21.157Z,19.52
2019-03-18T19:32:49.660Z,19.51
2019-03-18T19:35:18.139Z,19.51
2019-03-18T19:37:46.579Z,19.50
2019-03-18T19:40:25.093Z,19.49
2019-03-18T19:42:53.516Z,19.50
2019-03-18T19:45:21.925Z,19.49
2019-03-18T19:47:53.041Z,19.48
2019-03-18T19:50:31.979Z,19.48
2019-03-18T19:53:00.417Z,19.48
2019-03-18T19:55:28.830Z,19.47
2019-03-18T19:57:57.292Z,19.47
2019-03-18T20:00:27.921Z,19.48
2019-03-18T20:02:56.336Z,19.47
2019-03-18T20:05:24.749Z,19.48
2019-03-18T20:07:53.189Z,19.46
2019-03-18T20:10:22.436Z,19.46
2019-03-18T20:12:50.944Z,19.46
2019-03-18T20:15:20.092Z,19.45
2019-03-18T20:17:48.701Z,19.46
2019-03-18T20:20:21.860Z,19.47
2019-03-18T20:22:50.258Z,19.46
2019-03-18T20:25:18.800Z,19.45
2019-03-18T20:27:47.188Z,19.45
2019-03-18T20:30:17.157Z,19.45
2019-03-18T20:32:45.598Z,19.45
2019-03-18T20:35:15.885Z,19.45
2019-03-18T20:37:44.350Z,19.45
2019-03-18T20:40:14.488Z,19.44
2019-03-18T20:42:42.992Z,19.44
2019-03-18T20:45:16.476Z,19.44
2019-03-18T20:47:44.883Z,19.43
2019-03-18T20:50:15.471Z,19.44
2019-03-18T20:52:43.900Z,19.42
2019-03-18T20:55:13.262Z,19.43
2019-03-18T20:57:41.704Z,19.42
2019-03-18T21:00:18.215Z,19.43
2019-03-18T21:02:46.640Z,19.42
2019-03-18T21:05:15.208Z,19.43
2019-03-18T21:07:43.646Z,19.43
2019-03-18T21:10:16.514Z,19.42
2019-03-18T21:12:45.127Z,19.41
2019-03-18T21:15:17.499Z,19.42
2019-03-18T21:17:46.260Z,19.42
2019-03-18T21:20:17.716Z,19.43
2019-03-18T21:22:46.182Z,19.42
2019-03-18T21:25:14.717Z,19.42
2019-03-18T21:27:43.308Z,19.42
2019-03-18T21:30:14.191Z,19.41
2019-03-18T21:32:42.610Z,19.41
2019-03-18T21:35:11.296Z,19.41
2019-03-18T21:37:39.806Z,19.41
2019-03-18T21:40:13.815Z,19.42
2019-03-18T21:42:42.265Z,19.41
2019-03-18T21:45:17.934Z,19.40
2019-03-18T21:47:46.400Z,19.40
2019-03-18T21:50:16.129Z,19.39
2019-03-18T21:52:44.617Z,19.40
2019-03-18T21:55:13.953Z,19.39
2019-03-18T21:57:42.469Z,19.39
2019-03-18T22:00:19.734Z,19.37
2019-03-18T22:02:48.249Z,19.36
2019-03-18T22:05:16.712Z,19.36
2019-03-18T22:07:46.170Z,19.36
2019-03-18T22:10:18.975Z,19.36
2019-03-18T22:12:47.759Z,19.35
2019-03-18T22:15:16.921Z,19.34
2019-03-18T22:17:45.354Z,19.34
2019-03-18T22:20:18.809Z,19.35
2019-03-18T22:22:47.217Z,19.35
2019-03-18T22:25:16.133Z,19.35
2019-03-18T22:27:44.709Z,19.34
2019-03-18T22:30:17.290Z,19.34
2019-03-18T22:32:45.710Z,19.34
2019-03-18T22:35:14.306Z,19.35
2019-03-18T22:37:42.738Z,19.35
2019-03-18T22:40:15.181Z,19.35
2019-03-18T22:42:43.957Z,19.34
2019-03-18T22:45:16.421Z,19.33
2019-03-18T22:47:44.849Z,19.33
2019-03-18T22:50:14.413Z,19.31
2019-03-18T22:52:42.848Z,19.33
2019-03-18T22:55:12.395Z,19.33
2019-03-18T22:57:41.333Z,19.32
2019-03-18T23:00:25.877Z,19.32
2019-03-18T23:02:54.587Z,19.31
2019-03-18T23:05:23.350Z,19.32
2019-03-18T23:07:51.791Z,19.31
2019-03-18T23:10:20.289Z,19.31
2019-03-18T23:12:48.695Z,19.31
2019-03-18T23:15:17.173Z,19.30
2019-03-18T23:17:45.583Z,19.30
2019-03-18T23:20:14.153Z,19.29
2019-03-18T23:22:42.600Z,19.30
2019-03-18T23:25:11.016Z,19.30
2019-03-18T23:27:39.459Z,19.30
2019-03-18T23:30:14.627Z,19.29
2019-03-18T23:32:43.053Z,19.28
2019-03-18T23:35:12.042Z,19.30
2019-03-18T23:37:40.484Z,19.29
2019-03-18T23:40:11.284Z,19.30
2019-03-18T23:42:39.757Z,19.30
2019-03-18T23:45:09.623Z,19.29
2019-03-18T23:47:38.041Z,19.27
2019-03-18T23:50:09.494Z,19.29
2019-03-18T23:52:37.911Z,19.29
2019-03-18T23:55:18.391Z,19.29
2019-03-18T23:57:38.126Z,19.30
